Bone Cave, Tennessee
Current Conditions -  °F | °C
As of 1:55 PM on Sunday 23 Nov 2014 (Local Time) from KRNC Reporting Station
Overcast Overcast  
Wind Chill: 57°   Ceiling: 1200
Heat Index: 57°   Visibility: 2.5mi
Dew Point: 57°   Wind: 0mph
Humidity: 100%   Direction: NA
Pressure: 29.59"   Gusts: NA
Location:  35.6951°N, 85.5898°W
Report Text: KRNC 231955Z AUTO 00000KT 2 1/2SM SCT004 BKN012 OVC033 14/14 A2959 RMK
Loading
Personal Weather Stations






























Interactive Weather Map New forecast layout! Learn more

10-Day Weather Forecast

Advertisements
Track Severe Weather on mobile